Terminal Aerodrome Forecast
Issued by NWS Charleston, WV

Current Version | Previous Version | Graphics & Text | Print | Product List | Glossary On
Versions: 1 2 3 4 5 6 7 8 9 10 11 12 13 14 15 16 17 18 19 20 21 22 23 24 25
000
FTUS41 KRLX 210900 AAA
TAFBKW
TAF AMD
KBKW 210900Z 2109/2206 30010KT P6SM BKN035
     FM211200 28008KT P6SM SCT035
     FM211500 27016G26KT P6SM SCT040
     FM212200 25014G24KT P6SM SCT060
     FM220200 22011KT P6SM SCT060=

USA.gov is the U.S. government's official web portal to all federal, state and local government web resources and services.